createdAt,value
2023-07-02T00:00:19.735Z,993.73
2023-07-02T00:01:19.794Z,993.78
2023-07-02T00:02:20.069Z,993.76
2023-07-02T00:03:20.065Z,993.72
2023-07-02T00:04:20.045Z,993.72
2023-07-02T00:05:20.052Z,993.71
2023-07-02T00:06:20.116Z,993.76
2023-07-02T00:07:20.255Z,993.77
2023-07-02T00:08:20.295Z,993.77
2023-07-02T00:09:20.319Z,993.80
2023-07-02T00:10:20.388Z,993.75
2023-07-02T00:11:20.460Z,993.76
2023-07-02T00:12:20.540Z,993.76
2023-07-02T00:13:20.637Z,993.78
2023-07-02T00:14:20.696Z,993.75
2023-07-02T00:15:20.751Z,993.76
2023-07-02T00:16:20.854Z,993.75
2023-07-02T00:17:20.936Z,993.76
2023-07-02T00:18:21.011Z,993.76
2023-07-02T00:19:21.398Z,993.77
2023-07-02T00:20:21.175Z,993.77
2023-07-02T00:21:21.236Z,993.73
2023-07-02T00:22:21.401Z,993.72
2023-07-02T00:23:21.407Z,993.68
2023-07-02T00:24:21.521Z,993.71
2023-07-02T00:25:21.564Z,993.70
2023-07-02T00:26:21.667Z,993.73
2023-07-02T00:27:21.758Z,993.72
2023-07-02T00:28:21.853Z,993.71
2023-07-02T00:29:21.898Z,993.70
2023-07-02T00:30:21.968Z,993.72
2023-07-02T00:31:22.086Z,993.69
2023-07-02T00:32:22.166Z,993.66
2023-07-02T00:33:22.200Z,993.72
2023-07-02T00:34:22.253Z,993.69
2023-07-02T00:35:22.322Z,993.71
2023-07-02T00:36:22.385Z,993.69
2023-07-02T00:37:22.469Z,993.68
2023-07-02T00:38:22.525Z,993.70
2023-07-02T00:39:22.600Z,993.71
2023-07-02T00:40:22.661Z,993.75
2023-07-02T00:41:22.740Z,993.76
2023-07-02T00:42:22.798Z,993.75
2023-07-02T00:43:22.974Z,993.69
2023-07-02T00:44:24.476Z,993.77
2023-07-02T00:45:23.042Z,993.77
2023-07-02T00:46:23.183Z,993.71
2023-07-02T00:47:23.214Z,993.70
2023-07-02T00:48:23.273Z,993.72
2023-07-02T00:49:23.348Z,993.71
2023-07-02T00:50:23.394Z,993.71
2023-07-02T00:51:23.476Z,993.71
2023-07-02T00:52:23.540Z,993.72
2023-07-02T00:53:23.655Z,993.71
2023-07-02T00:54:23.729Z,993.70
2023-07-02T00:55:23.779Z,993.67
2023-07-02T00:56:23.882Z,993.69
2023-07-02T00:57:23.944Z,993.68
2023-07-02T00:58:24.016Z,993.72
2023-07-02T00:59:24.104Z,993.71
2023-07-02T01:00:24.164Z,993.73
2023-07-02T01:01:24.294Z,993.70
2023-07-02T01:02:24.386Z,993.73
2023-07-02T01:03:24.514Z,993.73
2023-07-02T01:04:24.553Z,993.71
2023-07-02T01:05:24.779Z,993.69
2023-07-02T01:06:24.684Z,993.70
2023-07-02T01:07:24.877Z,993.66
2023-07-02T01:08:24.885Z,993.78
2023-07-02T01:09:24.969Z,993.73
2023-07-02T01:10:25.046Z,993.78
2023-07-02T01:11:25.153Z,993.80
2023-07-02T01:12:25.211Z,993.78
2023-07-02T01:13:25.348Z,993.78
2023-07-02T01:14:25.368Z,993.75
2023-07-02T01:15:25.474Z,993.80
2023-07-02T01:16:25.564Z,993.76
2023-07-02T01:17:25.671Z,993.77
2023-07-02T01:18:25.723Z,993.75
2023-07-02T01:19:25.807Z,993.74
2023-07-02T01:20:25.897Z,993.72
2023-07-02T01:21:25.974Z,993.76
2023-07-02T01:22:26.041Z,993.74
2023-07-02T01:23:26.156Z,993.69
2023-07-02T01:24:26.227Z,993.72
2023-07-02T01:25:26.323Z,993.72
2023-07-02T01:26:26.409Z,993.69
2023-07-02T01:27:26.518Z,993.72
2023-07-02T01:28:26.588Z,993.73
2023-07-02T01:29:26.686Z,993.73
2023-07-02T01:30:26.731Z,993.76
2023-07-02T01:31:26.870Z,993.76
2023-07-02T01:32:26.946Z,993.77
2023-07-02T01:33:27.042Z,993.75
2023-07-02T01:34:27.085Z,993.73
2023-07-02T01:35:27.271Z,993.74
2023-07-02T01:36:27.260Z,993.71
2023-07-02T01:37:27.328Z,993.74
2023-07-02T01:38:27.405Z,993.71
2023-07-02T01:39:27.488Z,993.71
2023-07-02T01:40:27.534Z,993.72
2023-07-02T01:41:27.614Z,993.74
2023-07-02T01:42:27.668Z,993.73
2023-07-02T01:43:27.796Z,993.71
2023-07-02T01:44:27.835Z,993.71
2023-07-02T01:45:27.949Z,993.74
2023-07-02T01:46:28.103Z,993.72
2023-07-02T01:47:28.142Z,993.75
2023-07-02T01:48:28.230Z,993.75
2023-07-02T01:49:28.309Z,993.71
2023-07-02T01:50:28.358Z,993.72
2023-07-02T01:51:28.474Z,993.72
2023-07-02T01:52:28.548Z,993.70
2023-07-02T01:53:28.641Z,993.66
2023-07-02T01:54:28.797Z,993.74
2023-07-02T01:55:28.795Z,993.71
2023-07-02T01:56:28.875Z,993.69
2023-07-02T01:57:28.981Z,993.73
2023-07-02T01:58:29.080Z,993.75
2023-07-02T01:59:29.138Z,993.74
2023-07-02T02:00:29.201Z,993.70
2023-07-02T02:01:29.355Z,993.74
2023-07-02T02:02:29.543Z,993.74
2023-07-02T02:03:29.690Z,993.71
2023-07-02T02:04:29.584Z,993.72
2023-07-02T02:05:29.659Z,993.71
2023-07-02T02:06:29.720Z,993.74
2023-07-02T02:07:29.821Z,993.72
2023-07-02T02:08:29.938Z,993.70
2023-07-02T02:09:29.989Z,993.66
2023-07-02T02:10:30.042Z,993.71
2023-07-02T02:11:30.147Z,993.75
2023-07-02T02:12:30.207Z,993.74
2023-07-02T02:13:30.330Z,993.76
2023-07-02T02:14:30.393Z,993.74
2023-07-02T02:15:30.602Z,993.75
2023-07-02T02:16:30.663Z,993.78
2023-07-02T02:17:30.678Z,993.77
2023-07-02T02:18:30.736Z,993.79
2023-07-02T02:19:30.793Z,993.80
2023-07-02T02:20:30.859Z,993.82
2023-07-02T02:21:30.969Z,993.83
2023-07-02T02:22:31.051Z,993.86
2023-07-02T02:23:31.199Z,993.85
2023-07-02T02:24:31.238Z,993.84
2023-07-02T02:25:31.339Z,993.86
2023-07-02T02:26:31.410Z,993.84
2023-07-02T02:27:31.526Z,993.86
2023-07-02T02:28:31.600Z,993.88
2023-07-02T02:29:31.660Z,993.90
2023-07-02T02:30:31.743Z,993.88
2023-07-02T02:31:31.979Z,993.87
2023-07-02T02:32:31.993Z,993.91
2023-07-02T02:33:32.049Z,993.87
2023-07-02T02:34:32.099Z,993.89
2023-07-02T02:35:32.210Z,993.89
2023-07-02T02:36:32.260Z,993.90
2023-07-02T02:37:32.379Z,993.92
2023-07-02T02:38:32.500Z,993.90
2023-07-02T02:39:32.556Z,993.90
2023-07-02T02:40:32.643Z,993.91
2023-07-02T02:41:32.742Z,993.91
2023-07-02T02:42:32.834Z,993.86
2023-07-02T02:43:32.995Z,993.87
2023-07-02T02:44:32.995Z,993.86
2023-07-02T02:45:33.095Z,993.94
2023-07-02T02:46:33.146Z,993.89
2023-07-02T02:47:33.256Z,993.88
2023-07-02T02:48:33.345Z,993.87
2023-07-02T02:49:33.404Z,993.83
2023-07-02T02:50:33.488Z,993.84
2023-07-02T02:51:33.588Z,993.82
2023-07-02T02:52:33.636Z,993.82
2023-07-02T02:53:33.766Z,993.84
2023-07-02T02:54:33.813Z,993.85
2023-07-02T02:55:33.913Z,993.83
2023-07-02T02:56:33.999Z,993.80
2023-07-02T02:57:34.104Z,993.80
2023-07-02T02:58:34.179Z,993.80
2023-07-02T02:59:34.268Z,993.79
2023-07-02T03:00:34.311Z,993.83
2023-07-02T03:01:34.469Z,993.82
2023-07-02T03:02:34.592Z,993.87
2023-07-02T03:03:34.664Z,993.86
2023-07-02T03:04:34.713Z,993.87
2023-07-02T03:05:34.768Z,993.88
2023-07-02T03:06:34.836Z,993.85
2023-07-02T03:07:34.963Z,993.89
2023-07-02T03:08:35.009Z,993.90
2023-07-02T03:09:35.110Z,993.89
2023-07-02T03:10:35.195Z,993.91
2023-07-02T03:11:35.288Z,993.90
2023-07-02T03:12:35.318Z,993.93
2023-07-02T03:13:35.453Z,993.95
2023-07-02T03:14:35.497Z,993.97
2023-07-02T03:15:35.602Z,993.97
2023-07-02T03:16:35.837Z,993.97
2023-07-02T03:17:35.834Z,993.97
2023-07-02T03:18:35.889Z,994.01
2023-07-02T03:19:35.937Z,994.02
2023-07-02T03:20:36.028Z,994.01
2023-07-02T03:21:36.124Z,994.01
2023-07-02T03:22:36.207Z,994.01
2023-07-02T03:23:36.330Z,994.00
2023-07-02T03:24:36.382Z,994.02
2023-07-02T03:25:36.465Z,994.00
2023-07-02T03:26:36.565Z,994.01
2023-07-02T03:27:36.704Z,994.02
2023-07-02T03:28:36.771Z,994.01
2023-07-02T03:29:36.823Z,994.05
2023-07-02T03:30:36.922Z,994.04
2023-07-02T03:31:37.062Z,994.06
2023-07-02T03:32:37.121Z,994.07
2023-07-02T03:33:37.195Z,994.09
2023-07-02T03:34:37.244Z,994.09
2023-07-02T03:35:37.337Z,994.11
2023-07-02T03:36:37.420Z,994.09
2023-07-02T03:37:37.498Z,994.12
2023-07-02T03:38:37.606Z,994.12
2023-07-02T03:39:37.666Z,994.13
2023-07-02T03:40:37.740Z,994.16
2023-07-02T03:41:37.823Z,994.18
2023-07-02T03:42:37.900Z,994.16
2023-07-02T03:43:38.027Z,994.18
2023-07-02T03:44:38.063Z,994.12
2023-07-02T03:45:38.153Z,994.17
2023-07-02T03:46:38.270Z,994.20
2023-07-02T03:47:38.323Z,994.15
2023-07-02T03:48:38.397Z,994.21
2023-07-02T03:49:38.485Z,994.19
2023-07-02T03:50:38.523Z,994.18
2023-07-02T03:51:38.603Z,994.21
2023-07-02T03:52:38.687Z,994.25
2023-07-02T03:53:38.801Z,994.25
2023-07-02T03:54:38.835Z,994.26
2023-07-02T03:55:38.935Z,994.29
2023-07-02T03:56:39.026Z,994.25
2023-07-02T03:57:39.114Z,994.26
2023-07-02T03:58:39.211Z,994.25
2023-07-02T03:59:39.308Z,994.26
2023-07-02T04:00:39.385Z,994.32
2023-07-02T04:01:39.488Z,994.31
2023-07-02T04:02:39.704Z,994.36
2023-07-02T04:03:39.788Z,994.33
2023-07-02T04:04:39.741Z,994.34
2023-07-02T04:05:39.790Z,994.38
2023-07-02T04:06:39.880Z,994.36
2023-07-02T04:07:39.959Z,994.36
2023-07-02T04:08:40.065Z,994.39
2023-07-02T04:09:40.145Z,994.39
2023-07-02T04:10:40.222Z,994.41
2023-07-02T04:11:40.322Z,994.42
2023-07-02T04:12:40.396Z,994.42
2023-07-02T04:13:40.527Z,994.43
2023-07-02T04:14:40.590Z,994.46
2023-07-02T04:15:40.660Z,994.47
2023-07-02T04:16:40.799Z,994.45
2023-07-02T04:17:40.857Z,994.45
2023-07-02T04:18:40.933Z,994.48
2023-07-02T04:19:41.024Z,994.52
2023-07-02T04:20:41.078Z,994.53
2023-07-02T04:21:41.190Z,994.53
2023-07-02T04:22:41.265Z,994.54
2023-07-02T04:23:41.387Z,994.56
2023-07-02T04:24:41.443Z,994.56
2023-07-02T04:25:46.673Z,994.58
2023-07-02T04:27:03.448Z,994.61
2023-07-02T04:27:50.402Z,994.58
2023-07-02T04:28:41.833Z,994.61
2023-07-02T04:29:41.918Z,994.59
2023-07-02T04:30:41.996Z,994.63
2023-07-02T04:31:42.139Z,994.64
2023-07-02T04:32:42.192Z,994.63
2023-07-02T04:33:42.265Z,994.66
2023-07-02T04:34:42.331Z,994.63
2023-07-02T04:35:42.423Z,994.69
2023-07-02T04:36:42.502Z,994.67
2023-07-02T04:37:42.589Z,994.68
2023-07-02T04:38:42.703Z,994.67
2023-07-02T04:39:42.757Z,994.71
2023-07-02T04:40:42.841Z,994.73
2023-07-02T04:41:42.923Z,994.69
2023-07-02T04:42:42.992Z,994.70
2023-07-02T04:43:43.113Z,994.70
2023-07-02T04:44:43.156Z,994.76
2023-07-02T04:45:43.278Z,994.73
2023-07-02T04:46:43.310Z,994.72
2023-07-02T04:47:43.394Z,994.72
2023-07-02T04:48:43.535Z,994.77
2023-07-02T04:49:43.562Z,994.73
2023-07-02T04:50:43.678Z,994.73
2023-07-02T04:51:43.740Z,994.75
2023-07-02T04:52:43.827Z,994.77
2023-07-02T04:53:43.919Z,994.78
2023-07-02T04:54:43.989Z,994.81
2023-07-02T04:55:44.038Z,994.81
2023-07-02T04:56:44.134Z,994.80
2023-07-02T04:57:44.217Z,994.77
2023-07-02T04:58:44.341Z,994.80
2023-07-02T04:59:44.401Z,994.74
2023-07-02T05:00:44.490Z,994.76
2023-07-02T05:01:44.653Z,994.75
2023-07-02T05:02:44.700Z,994.79
2023-07-02T05:03:44.805Z,994.79
2023-07-02T05:04:44.918Z,994.80
2023-07-02T05:05:44.924Z,994.82
2023-07-02T05:06:45.014Z,994.83
2023-07-02T05:07:45.101Z,994.83
2023-07-02T05:08:45.200Z,994.83
2023-07-02T05:09:45.241Z,994.84
2023-07-02T05:10:45.349Z,994.87
2023-07-02T05:11:45.415Z,994.90
2023-07-02T05:12:45.502Z,994.90
2023-07-02T05:13:45.618Z,994.91
2023-07-02T05:14:45.662Z,994.88
2023-07-02T05:15:45.754Z,994.92
2023-07-02T05:16:45.860Z,994.96
2023-07-02T05:17:45.955Z,994.95
2023-07-02T05:18:46.048Z,994.93
2023-07-02T05:19:46.104Z,994.94
2023-07-02T05:20:46.317Z,995.01
2023-07-02T05:21:46.262Z,994.97
2023-07-02T05:22:46.355Z,994.95
2023-07-02T05:23:46.460Z,994.96
2023-07-02T05:24:46.551Z,994.96
2023-07-02T05:25:46.631Z,995.04
2023-07-02T05:26:46.722Z,995.03
2023-07-02T05:27:46.806Z,995.05
2023-07-02T05:28:46.897Z,995.05
2023-07-02T05:29:46.952Z,995.07
2023-07-02T05:30:47.343Z,995.03
2023-07-02T05:31:47.178Z,995.05
2023-07-02T05:32:47.290Z,995.08
2023-07-02T05:33:47.364Z,995.02
2023-07-02T05:34:47.407Z,995.06
2023-07-02T05:35:47.468Z,995.07
2023-07-02T05:36:47.546Z,995.09
2023-07-02T05:37:47.642Z,995.04
2023-07-02T05:38:47.733Z,995.10
2023-07-02T05:39:47.789Z,995.09
2023-07-02T05:40:48.184Z,995.10
2023-07-02T05:41:47.939Z,995.05
2023-07-02T05:42:48.026Z,995.07
2023-07-02T05:43:48.116Z,995.09
2023-07-02T05:44:48.178Z,995.04
2023-07-02T05:45:48.247Z,995.11
2023-07-02T05:46:48.409Z,995.11
2023-07-02T05:47:48.434Z,995.13
2023-07-02T05:48:48.513Z,995.17
2023-07-02T05:49:48.583Z,995.06
2023-07-02T05:50:48.996Z,995.15
2023-07-02T05:51:48.745Z,995.14
2023-07-02T05:52:48.855Z,995.14
2023-07-02T05:53:48.943Z,995.25
2023-07-02T05:54:49.011Z,995.22
2023-07-02T05:55:49.101Z,995.25
2023-07-02T05:56:49.172Z,995.45
2023-07-02T05:57:49.231Z,995.16
2023-07-02T05:58:49.332Z,995.20
2023-07-02T05:59:49.422Z,995.15
2023-07-02T06:00:49.777Z,995.18
2023-07-02T06:01:49.557Z,995.26
2023-07-02T06:02:49.825Z,995.27
2023-07-02T06:03:49.872Z,995.15
2023-07-02T06:04:50.006Z,995.47
2023-07-02T06:05:50.240Z,995.47
2023-07-02T06:06:49.951Z,995.40
2023-07-02T06:07:50.026Z,995.16
2023-07-02T06:08:50.154Z,995.30
2023-07-02T06:09:50.200Z,995.42
2023-07-02T06:10:50.554Z,995.23
2023-07-02T06:11:50.371Z,995.35
2023-07-02T06:12:50.452Z,995.48
2023-07-02T06:13:50.564Z,995.23
2023-07-02T06:14:50.621Z,995.39
2023-07-02T06:15:50.700Z,995.17
2023-07-02T06:16:50.777Z,995.25
2023-07-02T06:17:50.893Z,995.23
2023-07-02T06:18:51.023Z,995.25
2023-07-02T06:19:50.990Z,995.29
2023-07-02T06:20:51.334Z,995.26
2023-07-02T06:21:51.163Z,995.29
2023-07-02T06:22:51.245Z,995.30
2023-07-02T06:23:51.334Z,995.30
2023-07-02T06:24:51.416Z,995.41
2023-07-02T06:25:51.470Z,995.38
2023-07-02T06:26:51.579Z,995.45
2023-07-02T06:27:51.645Z,995.41
2023-07-02T06:28:51.771Z,995.43
2023-07-02T06:29:51.843Z,995.48
2023-07-02T06:30:52.150Z,995.45
2023-07-02T06:31:52.020Z,995.45
2023-07-02T06:32:52.113Z,995.49
2023-07-02T06:33:52.193Z,995.50
2023-07-02T06:34:52.265Z,995.40
2023-07-02T06:35:52.356Z,995.52
2023-07-02T06:36:52.412Z,995.52
2023-07-02T06:37:52.531Z,995.47
2023-07-02T06:38:52.574Z,995.76
2023-07-02T06:39:52.659Z,995.54
2023-07-02T06:40:52.762Z,995.53
2023-07-02T06:41:52.805Z,995.61
2023-07-02T06:42:52.877Z,995.54
2023-07-02T06:43:53.007Z,995.67
2023-07-02T06:44:53.037Z,995.75
2023-07-02T06:45:53.127Z,995.59
2023-07-02T06:46:53.225Z,995.65
2023-07-02T06:47:53.325Z,995.65
2023-07-02T06:48:53.397Z,995.61
2023-07-02T06:49:53.461Z,995.59
2023-07-02T06:50:53.529Z,995.62
2023-07-02T06:51:53.627Z,995.61
2023-07-02T06:52:53.666Z,995.64
2023-07-02T06:53:53.753Z,995.69
2023-07-02T06:54:53.825Z,995.68
2023-07-02T06:55:53.894Z,995.76
2023-07-02T06:56:54.155Z,995.70
2023-07-02T06:57:54.073Z,995.73
2023-07-02T06:58:54.173Z,995.65
2023-07-02T06:59:54.246Z,995.70
2023-07-02T07:00:54.307Z,995.74
2023-07-02T07:01:54.450Z,995.75
2023-07-02T07:02:54.561Z,995.77
2023-07-02T07:03:54.601Z,995.76
2023-07-02T07:04:54.650Z,995.73
2023-07-02T07:05:54.717Z,995.76
2023-07-02T07:06:54.790Z,995.79
2023-07-02T07:07:54.880Z,995.76
2023-07-02T07:08:54.980Z,995.78
2023-07-02T07:09:55.049Z,995.78
2023-07-02T07:10:55.133Z,995.78
2023-07-02T07:11:55.212Z,995.80
2023-07-02T07:12:55.293Z,995.77
2023-07-02T07:13:55.398Z,995.82
2023-07-02T07:14:55.518Z,995.89
2023-07-02T07:15:55.543Z,995.92
2023-07-02T07:16:55.603Z,995.95
2023-07-02T07:17:55.790Z,995.87
2023-07-02T07:18:55.839Z,995.90
2023-07-02T07:19:55.856Z,996.18
2023-07-02T07:20:55.957Z,996.13
2023-07-02T07:21:56.030Z,996.00
2023-07-02T07:22:56.117Z,995.86
2023-07-02T07:23:56.198Z,995.86
2023-07-02T07:24:56.273Z,996.20
2023-07-02T07:25:56.379Z,996.12
2023-07-02T07:26:56.440Z,996.16
2023-07-02T07:27:56.552Z,995.92
2023-07-02T07:28:56.631Z,995.78
2023-07-02T07:29:56.712Z,995.82
2023-07-02T07:30:56.813Z,996.18
2023-07-02T07:31:56.966Z,996.11
2023-07-02T07:32:57.022Z,996.10
2023-07-02T07:33:57.082Z,996.04
2023-07-02T07:34:57.151Z,996.04
2023-07-02T07:35:57.228Z,996.01
2023-07-02T07:36:57.313Z,996.03
2023-07-02T07:37:57.388Z,996.04
2023-07-02T07:38:59.834Z,996.01
2023-07-02T07:39:57.582Z,996.07
2023-07-02T07:40:57.624Z,995.99
2023-07-02T07:41:57.791Z,996.03
2023-07-02T07:42:57.767Z,996.05
2023-07-02T07:43:57.887Z,996.02
2023-07-02T07:44:57.942Z,996.04
2023-07-02T07:45:58.101Z,996.05
2023-07-02T07:46:58.084Z,996.10
2023-07-02T07:47:58.175Z,996.07
2023-07-02T07:48:58.258Z,996.11
2023-07-02T07:49:58.325Z,996.10
2023-07-02T07:50:58.387Z,996.12
2023-07-02T07:51:58.498Z,996.09
2023-07-02T07:52:58.567Z,996.10
2023-07-02T07:53:58.726Z,995.92
2023-07-02T07:54:58.806Z,995.80
2023-07-02T07:55:58.863Z,995.88
2023-07-02T07:56:58.919Z,995.86
2023-07-02T07:57:59.020Z,995.88
2023-07-02T07:58:59.111Z,995.85
2023-07-02T07:59:59.202Z,995.91
2023-07-02T08:00:59.276Z,996.01
2023-07-02T08:01:59.519Z,995.87
2023-07-02T08:02:59.489Z,995.86
2023-07-02T08:03:59.710Z,995.93
2023-07-02T08:04:59.673Z,996.10
2023-07-02T08:05:59.680Z,996.07
2023-07-02T08:06:59.736Z,996.02
2023-07-02T08:07:59.821Z,995.99
2023-07-02T08:08:59.948Z,996.00
2023-07-02T08:10:00.003Z,995.98
2023-07-02T08:11:00.090Z,995.89
2023-07-02T08:12:00.185Z,995.96
2023-07-02T08:13:00.272Z,995.97
2023-07-02T08:14:00.384Z,995.97
2023-07-02T08:15:00.429Z,995.98
2023-07-02T08:16:00.558Z,996.02
2023-07-02T08:17:00.584Z,996.10
2023-07-02T08:18:00.704Z,996.13
2023-07-02T08:19:00.758Z,996.12
2023-07-02T08:20:00.831Z,996.11
2023-07-02T08:21:00.887Z,996.11
2023-07-02T08:22:00.988Z,996.12
2023-07-02T08:23:01.050Z,996.07
2023-07-02T08:24:01.190Z,996.10
2023-07-02T08:25:01.231Z,996.15
2023-07-02T08:26:01.326Z,996.14
2023-07-02T08:27:01.387Z,996.15
2023-07-02T08:28:01.500Z,996.20
2023-07-02T08:29:01.621Z,996.19
2023-07-02T08:30:01.676Z,996.45
2023-07-02T08:31:01.883Z,996.16
2023-07-02T08:32:01.813Z,996.15
2023-07-02T08:33:01.926Z,996.09
2023-07-02T08:34:01.992Z,996.11
2023-07-02T08:35:02.044Z,996.11
2023-07-02T08:36:02.143Z,996.21
2023-07-02T08:37:02.192Z,996.24
2023-07-02T08:38:02.292Z,996.26
2023-07-02T08:39:02.362Z,996.20
2023-07-02T08:40:02.588Z,996.18
2023-07-02T08:41:02.684Z,996.14
2023-07-02T08:42:02.620Z,996.21
2023-07-02T08:43:02.756Z,996.17
2023-07-02T08:44:02.822Z,996.18
2023-07-02T08:45:02.857Z,996.25
2023-07-02T08:46:02.963Z,996.18
2023-07-02T08:47:03.025Z,996.26
2023-07-02T08:48:03.162Z,996.26
2023-07-02T08:49:03.230Z,996.24
2023-07-02T08:50:03.291Z,996.21
2023-07-02T08:51:03.332Z,996.22
2023-07-02T08:52:03.437Z,996.20
2023-07-02T08:53:03.518Z,996.20
2023-07-02T08:54:03.641Z,996.32
2023-07-02T08:55:03.703Z,996.22
2023-07-02T08:56:03.802Z,996.38
2023-07-02T08:57:03.852Z,996.22
2023-07-02T08:58:03.953Z,996.20
2023-07-02T08:59:04.060Z,996.22
2023-07-02T09:00:04.132Z,996.24
2023-07-02T09:01:04.244Z,996.23
2023-07-02T09:02:04.295Z,996.23
2023-07-02T09:03:04.448Z,996.25
2023-07-02T09:04:04.585Z,996.26
2023-07-02T09:05:04.749Z,996.25
2023-07-02T09:06:04.656Z,996.27
2023-07-02T09:07:04.758Z,996.33
2023-07-02T09:08:04.773Z,996.30
2023-07-02T09:09:04.909Z,996.33
2023-07-02T09:10:04.938Z,996.35
2023-07-02T09:11:05.026Z,996.38
2023-07-02T09:12:05.102Z,996.37
2023-07-02T09:13:05.185Z,996.38
2023-07-02T09:14:05.295Z,996.38
2023-07-02T09:15:05.335Z,996.34
2023-07-02T09:16:05.402Z,996.35
2023-07-02T09:17:05.547Z,996.37
2023-07-02T09:18:05.642Z,996.35
2023-07-02T09:19:05.698Z,996.34
2023-07-02T09:20:05.736Z,996.38
2023-07-02T09:21:05.822Z,996.39
2023-07-02T09:22:05.902Z,996.43
2023-07-02T09:23:06.004Z,996.41
2023-07-02T09:24:06.081Z,996.47
2023-07-02T09:25:06.174Z,996.48
2023-07-02T09:26:06.278Z,996.42
2023-07-02T09:27:06.338Z,996.45
2023-07-02T09:28:06.410Z,996.50
2023-07-02T09:29:06.536Z,996.49
2023-07-02T09:30:06.579Z,996.51
2023-07-02T09:31:06.870Z,996.48
2023-07-02T09:32:10.631Z,996.47
2023-07-02T09:33:06.986Z,996.45
2023-07-02T09:34:07.155Z,996.43
2023-07-02T09:35:07.013Z,996.44
2023-07-02T09:36:07.104Z,996.48
2023-07-02T09:37:07.281Z,996.53
2023-07-02T09:38:07.266Z,996.56
2023-07-02T09:39:07.377Z,996.53
2023-07-02T09:40:07.961Z,996.45
2023-07-02T09:41:07.528Z,996.65
2023-07-02T09:42:07.586Z,996.47
2023-07-02T09:43:07.647Z,996.43
2023-07-02T09:44:07.749Z,996.44
2023-07-02T09:45:07.819Z,996.44
2023-07-02T09:46:07.904Z,996.47
2023-07-02T09:47:07.974Z,996.45
2023-07-02T09:48:08.077Z,996.49
2023-07-02T09:49:08.163Z,996.50
2023-07-02T09:50:08.205Z,996.48
2023-07-02T09:51:08.299Z,996.48
2023-07-02T09:52:08.378Z,996.48
2023-07-02T09:53:08.467Z,996.48
2023-07-02T09:54:08.616Z,996.59
2023-07-02T09:55:08.669Z,996.43
2023-07-02T09:56:08.708Z,996.41
2023-07-02T09:57:08.801Z,996.41
2023-07-02T09:58:08.857Z,996.43
2023-07-02T09:59:08.954Z,996.41
2023-07-02T10:00:09.003Z,996.38
2023-07-02T10:01:09.077Z,996.33
2023-07-02T10:02:09.235Z,996.41
2023-07-02T10:03:09.320Z,996.41
2023-07-02T10:04:09.384Z,996.41
2023-07-02T10:05:09.525Z,996.40
2023-07-02T10:06:09.504Z,996.39
2023-07-02T10:07:09.585Z,996.44
2023-07-02T10:08:09.628Z,996.45
2023-07-02T10:09:09.756Z,996.39
2023-07-02T10:10:09.804Z,996.42
2023-07-02T10:11:09.882Z,996.47
2023-07-02T10:12:09.946Z,996.50
2023-07-02T10:13:10.061Z,996.45
2023-07-02T10:14:10.135Z,996.47
2023-07-02T10:15:10.210Z,996.48
2023-07-02T10:16:10.270Z,996.49
2023-07-02T10:17:10.363Z,996.51
2023-07-02T10:18:10.450Z,996.51
2023-07-02T10:19:10.546Z,996.44
2023-07-02T10:20:10.633Z,996.44
2023-07-02T10:21:10.694Z,996.48
2023-07-02T10:22:10.773Z,996.46
2023-07-02T10:23:10.873Z,996.49
2023-07-02T10:24:10.979Z,996.50
2023-07-02T10:25:11.033Z,996.49
2023-07-02T10:26:11.100Z,996.53
2023-07-02T10:27:11.196Z,996.48
2023-07-02T10:28:11.268Z,996.53
2023-07-02T10:29:11.371Z,996.47
2023-07-02T10:30:11.418Z,996.51
2023-07-02T10:31:11.518Z,996.47
2023-07-02T10:32:11.589Z,996.51
2023-07-02T10:33:11.671Z,996.51
2023-07-02T10:34:11.775Z,996.46
2023-07-02T10:35:11.856Z,996.46
2023-07-02T10:36:11.927Z,996.47
2023-07-02T10:37:12.037Z,996.54
2023-07-02T10:38:12.108Z,996.54
2023-07-02T10:39:12.224Z,996.55
2023-07-02T10:40:12.257Z,996.59
2023-07-02T10:41:12.352Z,996.57
2023-07-02T10:42:12.428Z,996.57
2023-07-02T10:43:12.514Z,996.60
2023-07-02T10:44:12.665Z,996.61
2023-07-02T10:45:12.655Z,996.57
2023-07-02T10:46:12.790Z,996.60
2023-07-02T10:47:12.817Z,996.61
2023-07-02T10:48:12.889Z,996.54
2023-07-02T10:49:13.010Z,996.52
2023-07-02T10:50:13.041Z,996.53
2023-07-02T10:51:13.126Z,996.67
2023-07-02T10:52:13.171Z,996.63
2023-07-02T10:53:13.279Z,996.59
2023-07-02T10:54:13.338Z,996.47
2023-07-02T10:55:13.428Z,996.54
2023-07-02T10:56:13.501Z,996.50
2023-07-02T10:57:13.592Z,996.45
2023-07-02T10:58:13.656Z,996.44
2023-07-02T10:59:14.002Z,996.47
2023-07-02T11:00:13.826Z,996.39
2023-07-02T11:01:13.940Z,996.34
2023-07-02T11:02:14.015Z,996.36
2023-07-02T11:03:14.200Z,996.32
2023-07-02T11:04:14.281Z,996.33
2023-07-02T11:05:14.313Z,996.31
2023-07-02T11:06:14.337Z,996.36
2023-07-02T11:07:14.417Z,996.36
2023-07-02T11:08:14.487Z,996.40
2023-07-02T11:09:14.571Z,996.35
2023-07-02T11:10:14.724Z,996.43
2023-07-02T11:11:14.716Z,996.39
2023-07-02T11:12:14.788Z,996.43
2023-07-02T11:13:14.860Z,996.38
2023-07-02T11:14:14.938Z,996.42
2023-07-02T11:15:15.019Z,996.45
2023-07-02T11:16:15.090Z,996.44
2023-07-02T11:17:15.300Z,996.54
2023-07-02T11:18:15.432Z,996.51
2023-07-02T11:19:15.322Z,996.45
2023-07-02T11:20:15.422Z,996.45
2023-07-02T11:21:15.473Z,996.49
2023-07-02T11:22:15.549Z,996.49
2023-07-02T11:23:15.634Z,996.53
2023-07-02T11:24:15.723Z,996.62
2023-07-02T11:25:15.803Z,996.59
2023-07-02T11:26:15.862Z,996.57
2023-07-02T11:27:15.941Z,996.54
2023-07-02T11:28:16.032Z,996.54
2023-07-02T11:29:16.152Z,996.62
2023-07-02T11:30:16.212Z,996.62
2023-07-02T11:31:16.353Z,996.62
2023-07-02T11:32:16.363Z,996.65
2023-07-02T11:33:16.439Z,996.63
2023-07-02T11:34:18.823Z,996.62
2023-07-02T11:35:16.594Z,996.57
2023-07-02T11:36:16.657Z,996.57
2023-07-02T11:37:16.742Z,996.61
2023-07-02T11:38:16.810Z,996.58
2023-07-02T11:39:16.989Z,996.56
2023-07-02T11:40:16.975Z,996.59
2023-07-02T11:41:17.865Z,996.61
2023-07-02T11:42:17.123Z,996.64
2023-07-02T11:43:17.222Z,996.60
2023-07-02T11:44:17.312Z,996.57
2023-07-02T11:45:17.385Z,996.57
2023-07-02T11:46:17.504Z,996.61
2023-07-02T11:47:17.586Z,996.59
2023-07-02T11:48:17.629Z,996.61
2023-07-02T11:49:17.739Z,996.58
2023-07-02T11:50:26.334Z,996.53
2023-07-02T11:51:17.873Z,996.59
2023-07-02T11:52:17.954Z,996.64
2023-07-02T11:53:18.029Z,996.63
2023-07-02T11:54:18.115Z,996.61
2023-07-02T11:55:18.192Z,996.64
2023-07-02T11:56:18.276Z,996.62
2023-07-02T11:57:18.374Z,996.61
2023-07-02T11:58:18.426Z,996.65
2023-07-02T11:59:18.523Z,996.58
2023-07-02T12:00:18.555Z,996.58
2023-07-02T12:01:18.722Z,996.64
2023-07-02T12:02:18.726Z,996.67
2023-07-02T12:03:18.870Z,996.67
2023-07-02T12:04:18.977Z,996.69
2023-07-02T12:05:18.988Z,996.70
2023-07-02T12:06:19.038Z,996.74
2023-07-02T12:07:19.132Z,996.72
2023-07-02T12:08:19.202Z,996.65
2023-07-02T12:09:19.301Z,996.74
2023-07-02T12:10:19.341Z,996.75
2023-07-02T12:11:19.423Z,996.77
2023-07-02T12:12:19.492Z,996.78
2023-07-02T12:13:19.597Z,996.79
2023-07-02T12:14:19.682Z,996.76
2023-07-02T12:15:19.762Z,996.72
2023-07-02T12:16:19.919Z,996.75
2023-07-02T12:17:19.979Z,996.69
2023-07-02T12:18:20.022Z,996.75
2023-07-02T12:19:20.490Z,996.73
2023-07-02T12:20:20.186Z,996.77
2023-07-02T12:21:20.255Z,996.73
2023-07-02T12:22:20.352Z,996.71
2023-07-02T12:23:20.426Z,996.73
2023-07-02T12:24:20.738Z,996.73
2023-07-02T12:25:20.606Z,996.73
2023-07-02T12:26:20.676Z,996.75
2023-07-02T12:27:20.750Z,996.75
2023-07-02T12:28:20.827Z,996.70
2023-07-02T12:29:21.031Z,996.72